DARAJ65 VOPB-VTBD
Flight info
| Callsign | DARAJ65 |
|---|---|
| Flight time | 1h 4m |
| Altitude | FL410 |
| Route | LULDA P762 LALIT M502 BONVO WEHA3A |
| Aircraft | CL60/M-SADE3FGHIJ3J4J7P2RWXY/HB1D1 |
Departure
| Time | 2026-04-22 01:00 |
|---|---|
| Airport | Veer Savarkar International Airport / INS Utkrosh (VOPB) |
Arrival
| Time | 2026-04-22 02:05 |
|---|---|
| Airport | Don Mueang International Airport (VTBD) |
| Time | Latitude | Longitude | Altitude | Speed | Heading |
|---|---|---|---|---|---|
| 2026-04-22 00:42 | 11.64106 | 92.73150 | 19 ft | 0 kts | 176° |
| 2026-04-22 00:55 | 11.64096 | 92.73142 | 20 ft | 4 kts | 277° |
| 2026-04-22 00:56 | 11.64134 | 92.73109 | 20 ft | 9 kts | 307° |
| 2026-04-22 00:56 | 11.64172 | 92.73033 | 20 ft | 13 kts | 261° |
| 2026-04-22 00:56 | 11.64002 | 92.72866 | 25 ft | 38 kts | 217° |
| 2026-04-22 00:56 | 11.63781 | 92.72693 | 35 ft | 36 kts | 214° |
| 2026-04-22 00:57 | 11.63573 | 92.72555 | 47 ft | 9 kts | 207° |
| 2026-04-22 00:57 | 11.63579 | 92.72539 | 47 ft | 1 kts | 41° |
| 2026-04-22 00:57 | 11.63580 | 92.72540 | 47 ft | 0 kts | 41° |
| 2026-04-22 00:59 | 11.63655 | 92.72604 | 42 ft | 49 kts | 37° |
| 2026-04-22 01:00 | 11.64301 | 92.73095 | 21 ft | 160 kts | 36° |
| 2026-04-22 01:00 | 11.65374 | 92.73937 | 713 ft | 197 kts | 39° |
| 2026-04-22 01:00 | 11.66427 | 92.74931 | 2102 ft | 202 kts | 44° |
| 2026-04-22 01:00 | 11.67329 | 92.76029 | 3338 ft | 214 kts | 57° |
| 2026-04-22 01:01 | 11.68022 | 92.77448 | 4704 ft | 229 kts | 65° |
| 2026-04-22 01:01 | 11.68666 | 92.78920 | 6298 ft | 229 kts | 65° |
| 2026-04-22 01:01 | 11.69333 | 92.80438 | 7659 ft | 235 kts | 65° |
| 2026-04-22 01:01 | 11.70036 | 92.82037 | 8943 ft | 243 kts | 66° |
| 2026-04-22 01:02 | 11.70745 | 92.83649 | 10173 ft | 250 kts | 66° |
| 2026-04-22 01:02 | 11.71456 | 92.85267 | 11315 ft | 257 kts | 66° |
| 2026-04-22 01:02 | 11.72236 | 92.87041 | 12481 ft | 264 kts | 66° |
| 2026-04-22 01:02 | 11.73041 | 92.88871 | 13335 ft | 283 kts | 66° |
| 2026-04-22 01:03 | 11.73950 | 92.90939 | 13632 ft | 322 kts | 66° |
| 2026-04-22 01:03 | 11.74948 | 92.93206 | 14343 ft | 342 kts | 66° |
| 2026-04-22 01:03 | 11.75998 | 92.95591 | 15319 ft | 351 kts | 66° |
| 2026-04-22 01:03 | 11.77014 | 92.97901 | 16260 ft | 357 kts | 66° |
| 2026-04-22 01:04 | 11.78048 | 93.00251 | 17207 ft | 362 kts | 66° |
| 2026-04-22 01:04 | 11.79120 | 93.02689 | 18169 ft | 367 kts | 66° |
| 2026-04-22 01:04 | 11.80184 | 93.05110 | 19106 ft | 371 kts | 66° |
| 2026-04-22 01:04 | 11.81266 | 93.07574 | 20017 ft | 376 kts | 66° |
| 2026-04-22 01:05 | 11.82386 | 93.10127 | 20906 ft | 381 kts | 66° |
| 2026-04-22 01:05 | 11.83483 | 93.12629 | 21731 ft | 385 kts | 66° |
| 2026-04-22 01:05 | 11.84576 | 93.15121 | 22535 ft | 390 kts | 66° |
| 2026-04-22 01:05 | 11.85790 | 93.17891 | 23399 ft | 395 kts | 66° |
| 2026-04-22 01:06 | 11.87010 | 93.20675 | 24227 ft | 400 kts | 66° |
| 2026-04-22 01:06 | 11.88250 | 93.23506 | 25046 ft | 404 kts | 66° |
| 2026-04-22 01:06 | 11.89468 | 93.26289 | 25790 ft | 409 kts | 66° |
| 2026-04-22 01:06 | 11.90720 | 93.29149 | 26513 ft | 414 kts | 66° |
| 2026-04-22 01:07 | 11.91995 | 93.32064 | 27237 ft | 418 kts | 66° |
| 2026-04-22 01:07 | 11.93274 | 93.34988 | 27934 ft | 421 kts | 66° |
| 2026-04-22 01:07 | 11.94565 | 93.37942 | 28582 ft | 426 kts | 66° |
| 2026-04-22 01:07 | 11.95902 | 93.41001 | 29211 ft | 430 kts | 66° |
| 2026-04-22 01:08 | 11.97178 | 93.43922 | 29812 ft | 434 kts | 66° |
| 2026-04-22 01:08 | 11.98511 | 93.46974 | 30398 ft | 438 kts | 66° |
| 2026-04-22 01:08 | 11.99872 | 93.50092 | 30987 ft | 441 kts | 66° |
| 2026-04-22 01:08 | 12.01215 | 93.53171 | 31541 ft | 443 kts | 66° |
| 2026-04-22 01:09 | 12.02560 | 93.56254 | 32059 ft | 446 kts | 67° |
| 2026-04-22 01:09 | 12.03935 | 93.59408 | 32559 ft | 448 kts | 66° |
| 2026-04-22 01:09 | 12.05313 | 93.62570 | 33036 ft | 451 kts | 67° |
| 2026-04-22 01:09 | 12.06699 | 93.65750 | 33452 ft | 455 kts | 67° |
| 2026-04-22 01:10 | 12.08080 | 93.68922 | 33895 ft | 458 kts | 67° |
| 2026-04-22 01:10 | 12.09459 | 93.72090 | 34441 ft | 457 kts | 67° |
| 2026-04-22 01:10 | 12.10815 | 93.75204 | 35048 ft | 454 kts | 67° |
| 2026-04-22 01:10 | 12.12196 | 93.78379 | 35659 ft | 452 kts | 67° |
| 2026-04-22 01:11 | 12.13555 | 93.81506 | 36203 ft | 450 kts | 68° |
| 2026-04-22 01:11 | 12.14940 | 93.84693 | 36691 ft | 449 kts | 68° |
| 2026-04-22 01:11 | 12.16318 | 93.87865 | 37123 ft | 449 kts | 68° |
| 2026-04-22 01:11 | 12.17686 | 93.91013 | 37517 ft | 449 kts | 68° |
| 2026-04-22 01:12 | 12.19056 | 93.94171 | 37893 ft | 449 kts | 68° |
| 2026-04-22 01:12 | 12.20446 | 93.97373 | 38235 ft | 450 kts | 68° |
| 2026-04-22 01:12 | 12.21831 | 94.00567 | 38588 ft | 450 kts | 68° |
| 2026-04-22 01:12 | 12.23153 | 94.03615 | 38957 ft | 450 kts | 68° |
| 2026-04-22 01:13 | 12.24512 | 94.06749 | 39341 ft | 450 kts | 68° |
| 2026-04-22 01:13 | 12.25875 | 94.09893 | 39750 ft | 448 kts | 68° |
| 2026-04-22 01:13 | 12.27242 | 94.13049 | 40167 ft | 446 kts | 68° |
| 2026-04-22 01:13 | 12.28595 | 94.16172 | 40529 ft | 445 kts | 68° |
| 2026-04-22 01:14 | 12.29946 | 94.19294 | 40847 ft | 444 kts | 68° |
| 2026-04-22 01:14 | 12.31324 | 94.22478 | 40851 ft | 448 kts | 67° |
| 2026-04-22 01:14 | 12.34017 | 94.28707 | 40852 ft | 454 kts | 67° |
| 2026-04-22 01:15 | 12.36751 | 94.35031 | 40856 ft | 460 kts | 67° |
| 2026-04-22 01:15 | 12.39503 | 94.41398 | 40865 ft | 465 kts | 67° |
| 2026-04-22 01:16 | 12.42450 | 94.47937 | 40870 ft | 470 kts | 66° |
| 2026-04-22 01:16 | 12.45367 | 94.54372 | 40875 ft | 471 kts | 66° |
| 2026-04-22 01:17 | 12.48303 | 94.60854 | 40877 ft | 470 kts | 66° |
| 2026-04-22 01:17 | 12.51246 | 94.67359 | 40868 ft | 469 kts | 66° |
| 2026-04-22 01:18 | 12.54186 | 94.73863 | 40855 ft | 469 kts | 66° |
| 2026-04-22 01:18 | 12.57137 | 94.80398 | 40852 ft | 470 kts | 66° |
| 2026-04-22 01:19 | 12.60072 | 94.86903 | 40848 ft | 470 kts | 66° |
| 2026-04-22 01:19 | 12.63006 | 94.93412 | 40851 ft | 469 kts | 66° |
| 2026-04-22 01:20 | 12.65931 | 94.99905 | 40854 ft | 469 kts | 66° |
| 2026-04-22 01:20 | 12.68830 | 95.06345 | 40854 ft | 469 kts | 66° |
| 2026-04-22 01:21 | 12.71704 | 95.12737 | 40854 ft | 470 kts | 66° |
| 2026-04-22 01:21 | 12.74630 | 95.19247 | 40855 ft | 470 kts | 66° |
| 2026-04-22 01:22 | 12.77510 | 95.25660 | 40858 ft | 470 kts | 66° |
| 2026-04-22 01:22 | 12.80425 | 95.32155 | 40867 ft | 470 kts | 66° |
| 2026-04-22 01:23 | 12.83312 | 95.38596 | 40874 ft | 471 kts | 66° |
| 2026-04-22 01:23 | 12.86251 | 95.45162 | 40875 ft | 471 kts | 67° |
| 2026-04-22 01:24 | 12.88249 | 95.51951 | 40879 ft | 469 kts | 79° |
| 2026-04-22 01:24 | 12.89734 | 95.59004 | 40879 ft | 470 kts | 79° |
| 2026-04-22 01:25 | 12.91209 | 95.66018 | 40873 ft | 470 kts | 79° |
| 2026-04-22 01:25 | 12.92685 | 95.73056 | 40872 ft | 470 kts | 79° |
| 2026-04-22 01:26 | 12.94327 | 95.80899 | 40865 ft | 470 kts | 79° |
| 2026-04-22 01:26 | 12.96751 | 95.92510 | 40853 ft | 470 kts | 79° |
| 2026-04-22 01:27 | 12.99135 | 96.03963 | 40850 ft | 471 kts | 79° |
| 2026-04-22 01:27 | 13.01537 | 96.15530 | 40855 ft | 471 kts | 79° |
| 2026-04-22 01:28 | 13.04156 | 96.28171 | 40878 ft | 470 kts | 79° |
| 2026-04-22 01:28 | 13.06795 | 96.40949 | 40877 ft | 470 kts | 79° |
| 2026-04-22 01:29 | 13.09423 | 96.53705 | 40851 ft | 470 kts | 79° |
| 2026-04-22 01:29 | 13.11998 | 96.66239 | 40877 ft | 469 kts | 79° |
| 2026-04-22 01:30 | 13.14542 | 96.78655 | 40860 ft | 469 kts | 79° |
| 2026-04-22 01:30 | 13.17112 | 96.91231 | 40875 ft | 470 kts | 79° |
| 2026-04-22 01:31 | 13.19676 | 97.03804 | 40854 ft | 470 kts | 78° |
| 2026-04-22 01:31 | 13.22248 | 97.16452 | 40873 ft | 470 kts | 79° |
| 2026-04-22 01:32 | 13.24802 | 97.29047 | 40856 ft | 470 kts | 78° |
| 2026-04-22 01:32 | 13.27357 | 97.41675 | 40871 ft | 470 kts | 78° |
| 2026-04-22 01:33 | 13.29901 | 97.54290 | 40858 ft | 471 kts | 78° |
| 2026-04-22 01:33 | 13.32401 | 97.66716 | 40869 ft | 470 kts | 78° |
| 2026-04-22 01:34 | 13.34893 | 97.79135 | 40860 ft | 471 kts | 78° |
| 2026-04-22 01:34 | 13.37414 | 97.91730 | 40866 ft | 470 kts | 78° |
| 2026-04-22 01:35 | 13.39912 | 98.04245 | 40864 ft | 471 kts | 78° |
| 2026-04-22 01:35 | 13.42433 | 98.16913 | 40867 ft | 471 kts | 78° |
| 2026-04-22 01:36 | 13.44945 | 98.29561 | 40874 ft | 469 kts | 78° |
| 2026-04-22 01:36 | 13.47424 | 98.42078 | 40900 ft | 468 kts | 78° |
| 2026-04-22 01:37 | 13.49908 | 98.54658 | 40940 ft | 469 kts | 78° |
| 2026-04-22 01:37 | 13.52336 | 98.67001 | 40980 ft | 469 kts | 78° |
| 2026-04-22 01:38 | 13.54621 | 98.78648 | 40999 ft | 470 kts | 78° |
| 2026-04-22 01:38 | 13.56930 | 98.90447 | 40961 ft | 470 kts | 78° |
| 2026-04-22 01:39 | 13.59218 | 99.02170 | 40934 ft | 469 kts | 78° |
| 2026-04-22 01:39 | 13.60576 | 99.09145 | 40927 ft | 468 kts | 78° |
| 2026-04-22 01:40 | 13.61228 | 99.12499 | 40697 ft | 461 kts | 78° |
| 2026-04-22 01:40 | 13.61867 | 99.15784 | 39838 ft | 458 kts | 78° |
| 2026-04-22 01:40 | 13.62566 | 99.19087 | 38612 ft | 461 kts | 75° |
| 2026-04-22 01:40 | 13.63375 | 99.22452 | 37355 ft | 467 kts | 75° |
| 2026-04-22 01:41 | 13.64186 | 99.25810 | 36098 ft | 471 kts | 75° |
| 2026-04-22 01:41 | 13.64983 | 99.29120 | 34855 ft | 474 kts | 75° |
| 2026-04-22 01:41 | 13.65816 | 99.32584 | 33496 ft | 477 kts | 75° |
| 2026-04-22 01:41 | 13.66689 | 99.36214 | 32235 ft | 476 kts | 75° |
| 2026-04-22 01:42 | 13.67509 | 99.39632 | 31483 ft | 467 kts | 75° |
| 2026-04-22 01:42 | 13.68320 | 99.43018 | 30775 ft | 455 kts | 75° |
| 2026-04-22 01:42 | 13.69128 | 99.46398 | 29901 ft | 446 kts | 75° |
| 2026-04-22 01:42 | 13.69923 | 99.49722 | 28953 ft | 439 kts | 75° |
| 2026-04-22 01:43 | 13.70650 | 99.52762 | 28067 ft | 433 kts | 75° |
| 2026-04-22 01:43 | 13.71398 | 99.55896 | 27176 ft | 427 kts | 75° |
| 2026-04-22 01:43 | 13.72141 | 99.59009 | 26288 ft | 420 kts | 75° |
| 2026-04-22 01:43 | 13.72874 | 99.62084 | 25387 ft | 414 kts | 75° |
| 2026-04-22 01:44 | 13.73586 | 99.65075 | 24506 ft | 408 kts | 75° |
| 2026-04-22 01:44 | 13.74032 | 99.68021 | 23666 ft | 402 kts | 83° |
| 2026-04-22 01:44 | 13.74308 | 99.71014 | 22803 ft | 396 kts | 83° |
| 2026-04-22 01:44 | 13.74637 | 99.73897 | 21938 ft | 389 kts | 78° |
| 2026-04-22 01:45 | 13.75562 | 99.76519 | 21071 ft | 382 kts | 59° |
| 2026-04-22 01:45 | 13.77356 | 99.78690 | 20107 ft | 378 kts | 39° |
| 2026-04-22 01:45 | 13.79733 | 99.80211 | 19126 ft | 375 kts | 28° |
| 2026-04-22 01:45 | 13.82128 | 99.81508 | 18480 ft | 363 kts | 28° |
| 2026-04-22 01:46 | 13.84500 | 99.82800 | 17969 ft | 364 kts | 28° |
| 2026-04-22 01:46 | 13.86782 | 99.84045 | 17476 ft | 364 kts | 28° |
| 2026-04-22 01:46 | 13.89092 | 99.85306 | 16979 ft | 363 kts | 28° |
| 2026-04-22 01:46 | 13.91420 | 99.86577 | 16481 ft | 361 kts | 28° |
| 2026-04-22 01:47 | 13.93688 | 99.87818 | 15992 ft | 359 kts | 28° |
| 2026-04-22 01:47 | 13.96008 | 99.89087 | 15489 ft | 357 kts | 28° |
| 2026-04-22 01:47 | 13.98367 | 99.90378 | 14976 ft | 355 kts | 28° |
| 2026-04-22 01:47 | 14.00541 | 99.91569 | 14506 ft | 353 kts | 28° |
| 2026-04-22 01:48 | 14.02762 | 99.92786 | 14023 ft | 351 kts | 28° |
| 2026-04-22 01:48 | 14.05086 | 99.94061 | 13476 ft | 347 kts | 28° |
| 2026-04-22 01:48 | 14.07288 | 99.95270 | 12998 ft | 345 kts | 28° |
| 2026-04-22 01:48 | 14.09461 | 99.96462 | 12522 ft | 345 kts | 28° |
| 2026-04-22 01:49 | 14.11581 | 99.97626 | 12060 ft | 342 kts | 28° |
| 2026-04-22 01:49 | 14.13746 | 99.98815 | 11588 ft | 339 kts | 28° |
| 2026-04-22 01:49 | 14.15935 | 100.00018 | 11249 ft | 335 kts | 28° |
| 2026-04-22 01:49 | 14.18046 | 100.01178 | 10768 ft | 335 kts | 28° |
| 2026-04-22 01:50 | 14.20177 | 100.02350 | 10309 ft | 314 kts | 28° |
| 2026-04-22 01:50 | 14.22144 | 100.03433 | 9876 ft | 297 kts | 29° |
| 2026-04-22 01:50 | 14.23933 | 100.04509 | 9471 ft | 281 kts | 38° |
| 2026-04-22 01:50 | 14.25265 | 100.05994 | 9009 ft | 270 kts | 59° |
| 2026-04-22 01:51 | 14.25974 | 100.07857 | 8789 ft | 254 kts | 78° |
| 2026-04-22 01:51 | 14.26057 | 100.09764 | 8636 ft | 241 kts | 94° |
| 2026-04-22 01:51 | 14.25845 | 100.11559 | 8513 ft | 231 kts | 96° |
| 2026-04-22 01:51 | 14.25635 | 100.13260 | 8383 ft | 221 kts | 96° |
| 2026-04-22 01:52 | 14.25426 | 100.14965 | 8252 ft | 223 kts | 96° |
| 2026-04-22 01:52 | 14.25214 | 100.16695 | 8115 ft | 224 kts | 96° |
| 2026-04-22 01:52 | 14.25003 | 100.18411 | 7991 ft | 243 kts | 96° |
| 2026-04-22 01:52 | 14.24764 | 100.20365 | 7818 ft | 265 kts | 96° |
| 2026-04-22 01:53 | 14.24509 | 100.22433 | 7674 ft | 269 kts | 96° |
| 2026-04-22 01:53 | 14.24262 | 100.24431 | 7521 ft | 271 kts | 96° |
| 2026-04-22 01:53 | 14.24005 | 100.26506 | 7367 ft | 271 kts | 96° |
| 2026-04-22 01:53 | 14.23746 | 100.28594 | 7209 ft | 271 kts | 96° |
| 2026-04-22 01:54 | 14.23483 | 100.30706 | 7049 ft | 270 kts | 96° |
| 2026-04-22 01:54 | 14.23225 | 100.32771 | 6896 ft | 270 kts | 96° |
| 2026-04-22 01:54 | 14.22973 | 100.34787 | 6724 ft | 260 kts | 96° |
| 2026-04-22 01:54 | 14.22725 | 100.36768 | 6524 ft | 249 kts | 97° |
| 2026-04-22 01:55 | 14.22485 | 100.38678 | 6316 ft | 243 kts | 97° |
| 2026-04-22 01:55 | 14.22254 | 100.40518 | 6143 ft | 244 kts | 97° |
| 2026-04-22 01:55 | 14.22022 | 100.42361 | 5964 ft | 244 kts | 97° |
| 2026-04-22 01:55 | 14.21781 | 100.44269 | 5782 ft | 245 kts | 97° |
| 2026-04-22 01:56 | 14.21543 | 100.46162 | 5603 ft | 246 kts | 97° |
| 2026-04-22 01:56 | 14.21306 | 100.48042 | 5421 ft | 247 kts | 97° |
| 2026-04-22 01:56 | 14.21064 | 100.49956 | 5239 ft | 247 kts | 97° |
| 2026-04-22 01:56 | 14.20821 | 100.51880 | 5059 ft | 245 kts | 97° |
| 2026-04-22 01:57 | 14.20585 | 100.53751 | 4881 ft | 244 kts | 97° |
| 2026-04-22 01:57 | 14.20350 | 100.55609 | 4703 ft | 243 kts | 98° |
| 2026-04-22 01:57 | 14.20113 | 100.57489 | 4523 ft | 242 kts | 98° |
| 2026-04-22 01:57 | 14.19876 | 100.59361 | 4345 ft | 241 kts | 98° |
| 2026-04-22 01:58 | 14.19641 | 100.61208 | 4168 ft | 241 kts | 98° |
| 2026-04-22 01:58 | 14.19409 | 100.63038 | 3999 ft | 241 kts | 98° |
| 2026-04-22 01:58 | 14.19057 | 100.64879 | 3824 ft | 238 kts | 113° |
| 2026-04-22 01:58 | 14.18114 | 100.66277 | 3657 ft | 224 kts | 141° |
| 2026-04-22 01:59 | 14.16715 | 100.67075 | 3493 ft | 211 kts | 163° |
| 2026-04-22 01:59 | 14.15227 | 100.67511 | 3321 ft | 203 kts | 166° |
| 2026-04-22 01:59 | 14.13777 | 100.67927 | 3187 ft | 197 kts | 166° |
| 2026-04-22 01:59 | 14.12389 | 100.68325 | 3036 ft | 198 kts | 166° |
| 2026-04-22 02:00 | 14.10991 | 100.68726 | 2897 ft | 197 kts | 166° |
| 2026-04-22 02:00 | 14.09590 | 100.69127 | 2754 ft | 196 kts | 166° |
| 2026-04-22 02:00 | 14.08226 | 100.69492 | 2617 ft | 195 kts | 173° |
| 2026-04-22 02:00 | 14.06800 | 100.69339 | 2484 ft | 194 kts | 198° |
| 2026-04-22 02:01 | 14.05487 | 100.68789 | 2369 ft | 194 kts | 205° |
| 2026-04-22 02:01 | 14.04189 | 100.68120 | 2242 ft | 188 kts | 207° |
| 2026-04-22 02:01 | 14.02979 | 100.67460 | 2083 ft | 181 kts | 207° |
| 2026-04-22 02:01 | 14.01799 | 100.66802 | 1894 ft | 177 kts | 207° |
| 2026-04-22 02:02 | 14.00721 | 100.66197 | 1754 ft | 166 kts | 208° |
| 2026-04-22 02:02 | 13.99705 | 100.65627 | 1539 ft | 159 kts | 208° |
| 2026-04-22 02:02 | 13.98765 | 100.65100 | 1347 ft | 149 kts | 207° |
| 2026-04-22 02:02 | 13.97852 | 100.64588 | 1172 ft | 144 kts | 208° |
| 2026-04-22 02:03 | 13.96992 | 100.64105 | 996 ft | 134 kts | 207° |
| 2026-04-22 02:03 | 13.96190 | 100.63655 | 835 ft | 125 kts | 207° |
| 2026-04-22 02:03 | 13.95425 | 100.63226 | 662 ft | 120 kts | 207° |
| 2026-04-22 02:03 | 13.94678 | 100.62807 | 508 ft | 118 kts | 207° |
| 2026-04-22 02:04 | 13.93214 | 100.61984 | 208 ft | 117 kts | 207° |
| 2026-04-22 02:04 | 13.92494 | 100.61579 | 59 ft | 116 kts | 207° |
| 2026-04-22 02:04 | 13.91821 | 100.61200 | 3 ft | 89 kts | 208° |
| 2026-04-22 02:05 | 13.91429 | 100.60977 | 6 ft | 34 kts | 208° |
| 2026-04-22 02:05 | 13.91344 | 100.60930 | 6 ft | 15 kts | 208° |
| 2026-04-22 02:05 | 13.91234 | 100.60945 | 6 ft | 18 kts | 120° |
| 2026-04-22 02:05 | 13.91225 | 100.60968 | 6 ft | 0 kts | 103° |
| 2026-04-22 02:08 | 13.91235 | 100.61024 | 7 ft | 25 kts | 58° |
| 2026-04-22 02:09 | 13.91397 | 100.61134 | 9 ft | 29 kts | 30° |
| 2026-04-22 02:09 | 13.91593 | 100.61239 | 8 ft | 33 kts | 28° |
| 2026-04-22 02:09 | 13.91815 | 100.61363 | 4 ft | 38 kts | 29° |
| 2026-04-22 02:09 | 13.92035 | 100.61496 | 3 ft | 29 kts | 28° |
| 2026-04-22 02:10 | 13.92235 | 100.61613 | 3 ft | 33 kts | 28° |
| 2026-04-22 02:10 | 13.92364 | 100.61622 | 2 ft | 19 kts | 314° |
| 2026-04-22 02:10 | 13.92443 | 100.61476 | 0 ft | 25 kts | 297° |
| 2026-04-22 02:10 | 13.92535 | 100.61304 | 4 ft | 28 kts | 299° |
| 2026-04-22 02:11 | 13.92639 | 100.61112 | 9 ft | 30 kts | 298° |
| 2026-04-22 02:11 | 13.92672 | 100.61003 | 13 ft | 13 kts | 244° |
| 2026-04-22 02:11 | 13.92585 | 100.60933 | 13 ft | 18 kts | 211° |
| 2026-04-22 02:11 | 13.92477 | 100.60870 | 14 ft | 8 kts | 208° |
| 2026-04-22 02:12 | 13.92417 | 100.60837 | 14 ft | 0 kts | 208° |
| 2026-04-22 02:12 | 13.92403 | 100.60829 | 13 ft | 5 kts | 208° |
| 2026-04-22 02:12 | 13.92348 | 100.60801 | 12 ft | 12 kts | 207° |
| 2026-04-22 02:12 | 13.92253 | 100.60751 | 12 ft | 24 kts | 208° |
| 2026-04-22 02:13 | 13.92142 | 100.60662 | 11 ft | 16 kts | 253° |
| 2026-04-22 02:13 | 13.92151 | 100.60587 | 13 ft | 6 kts | 303° |
| 2026-04-22 02:13 | 13.92196 | 100.60569 | 13 ft | 10 kts | 21° |
| 2026-04-22 02:13 | 13.92277 | 100.60615 | 14 ft | 16 kts | 36° |
| 2026-04-22 02:14 | 13.92331 | 100.60647 | 15 ft | 17 kts | 28° |
| 2026-04-22 02:14 | 13.92383 | 100.60665 | 15 ft | 4 kts | 312° |
| 2026-04-22 02:14 | 13.92406 | 100.60618 | 16 ft | 0 kts | 298° |
| 2026-04-22 02:14 | 13.92407 | 100.60616 | 16 ft | 0 kts | 298° |